sensor_id;sensor_type;location;lat;lon;timestamp;P1;durP1;ratioP1;P2;durP2;ratioP2
29370;SDS011;16357;52.188;7.838;2023-05-27T00:00:30;12.00;;;4.75;;
29370;SDS011;16357;52.188;7.838;2023-05-27T00:03:06;19.40;;;5.63;;
29370;SDS011;16357;52.188;7.838;2023-05-27T00:05:47;17.45;;;5.80;;
29370;SDS011;16357;52.188;7.838;2023-05-27T00:08:17;16.45;;;5.47;;
29370;SDS011;16357;52.188;7.838;2023-05-27T00:10:44;14.35;;;4.95;;
29370;SDS011;16357;52.188;7.838;2023-05-27T00:13:11;16.83;;;5.05;;
29370;SDS011;16357;52.188;7.838;2023-05-27T00:15:39;14.60;;;5.28;;
29370;SDS011;16357;52.188;7.838;2023-05-27T00:18:06;16.98;;;4.90;;
29370;SDS011;16357;52.188;7.838;2023-05-27T00:20:33;15.98;;;5.35;;
29370;SDS011;16357;52.188;7.838;2023-05-27T00:22:59;22.33;;;5.57;;
29370;SDS011;16357;52.188;7.838;2023-05-27T00:25:26;14.35;;;4.40;;
29370;SDS011;16357;52.188;7.838;2023-05-27T00:27:53;15.30;;;5.32;;
29370;SDS011;16357;52.188;7.838;2023-05-27T00:30:20;17.17;;;5.32;;
29370;SDS011;16357;52.188;7.838;2023-05-27T00:32:47;13.95;;;5.13;;
29370;SDS011;16357;52.188;7.838;2023-05-27T00:35:14;17.98;;;5.30;;
29370;SDS011;16357;52.188;7.838;2023-05-27T00:37:41;16.30;;;4.57;;
29370;SDS011;16357;52.188;7.838;2023-05-27T00:40:09;16.92;;;4.80;;
29370;SDS011;16357;52.188;7.838;2023-05-27T00:42:37;20.85;;;5.10;;
29370;SDS011;16357;52.188;7.838;2023-05-27T00:45:03;15.57;;;5.10;;
29370;SDS011;16357;52.188;7.838;2023-05-27T00:47:31;14.70;;;4.95;;
29370;SDS011;16357;52.188;7.838;2023-05-27T00:49:59;14.20;;;4.28;;
29370;SDS011;16357;52.188;7.838;2023-05-27T00:52:26;17.00;;;5.47;;
29370;SDS011;16357;52.188;7.838;2023-05-27T00:54:53;11.73;;;4.22;;
29370;SDS011;16357;52.188;7.838;2023-05-27T00:57:22;12.23;;;4.75;;
29370;SDS011;16357;52.188;7.838;2023-05-27T00:59:48;17.17;;;5.03;;
29370;SDS011;16357;52.188;7.838;2023-05-27T01:02:15;15.32;;;4.50;;
29370;SDS011;16357;52.188;7.838;2023-05-27T01:04:41;12.18;;;4.25;;
29370;SDS011;16357;52.188;7.838;2023-05-27T01:07:17;14.40;;;5.07;;
29370;SDS011;16357;52.188;7.838;2023-05-27T01:10:38;15.20;;;4.35;;
29370;SDS011;16357;52.188;7.838;2023-05-27T01:12:55;15.32;;;4.53;;
29370;SDS011;16357;52.188;7.838;2023-05-27T01:15:27;14.55;;;4.47;;
29370;SDS011;16357;52.188;7.838;2023-05-27T01:17:56;16.40;;;4.78;;
29370;SDS011;16357;52.188;7.838;2023-05-27T01:20:28;16.27;;;4.75;;
29370;SDS011;16357;52.188;7.838;2023-05-27T01:22:55;15.85;;;4.40;;
29370;SDS011;16357;52.188;7.838;2023-05-27T01:25:23;15.90;;;5.45;;
29370;SDS011;16357;52.188;7.838;2023-05-27T01:27:50;17.35;;;5.38;;
29370;SDS011;16357;52.188;7.838;2023-05-27T01:30:19;15.50;;;5.15;;
29370;SDS011;16357;52.188;7.838;2023-05-27T01:32:51;17.85;;;4.78;;
29370;SDS011;16357;52.188;7.838;2023-05-27T01:35:27;14.88;;;4.60;;
29370;SDS011;16357;52.188;7.838;2023-05-27T01:38:01;14.77;;;5.22;;
29370;SDS011;16357;52.188;7.838;2023-05-27T01:40:31;18.50;;;4.72;;
29370;SDS011;16357;52.188;7.838;2023-05-27T01:43:00;14.63;;;5.03;;
29370;SDS011;16357;52.188;7.838;2023-05-27T01:45:27;14.07;;;4.70;;
29370;SDS011;16357;52.188;7.838;2023-05-27T01:47:53;25.00;;;5.22;;
29370;SDS011;16357;52.188;7.838;2023-05-27T01:50:20;13.35;;;4.88;;
29370;SDS011;16357;52.188;7.838;2023-05-27T01:52:47;14.10;;;4.57;;
29370;SDS011;16357;52.188;7.838;2023-05-27T01:55:13;16.30;;;5.05;;
29370;SDS011;16357;52.188;7.838;2023-05-27T01:57:40;14.70;;;4.65;;
29370;SDS011;16357;52.188;7.838;2023-05-27T02:00:06;13.48;;;4.15;;
29370;SDS011;16357;52.188;7.838;2023-05-27T02:02:35;17.20;;;4.97;;
29370;SDS011;16357;52.188;7.838;2023-05-27T02:05:02;16.63;;;5.13;;
29370;SDS011;16357;52.188;7.838;2023-05-27T02:07:29;15.32;;;4.80;;
29370;SDS011;16357;52.188;7.838;2023-05-27T02:09:56;15.10;;;4.65;;
29370;SDS011;16357;52.188;7.838;2023-05-27T02:12:22;20.83;;;5.18;;
29370;SDS011;16357;52.188;7.838;2023-05-27T02:14:49;13.68;;;4.55;;
29370;SDS011;16357;52.188;7.838;2023-05-27T02:17:17;15.45;;;4.95;;
29370;SDS011;16357;52.188;7.838;2023-05-27T02:19:43;17.83;;;4.97;;
29370;SDS011;16357;52.188;7.838;2023-05-27T02:22:11;16.50;;;5.40;;
29370;SDS011;16357;52.188;7.838;2023-05-27T02:24:37;18.15;;;5.10;;
29370;SDS011;16357;52.188;7.838;2023-05-27T02:27:04;13.10;;;4.30;;
29370;SDS011;16357;52.188;7.838;2023-05-27T02:29:32;16.83;;;4.97;;
29370;SDS011;16357;52.188;7.838;2023-05-27T02:31:58;13.82;;;4.68;;
29370;SDS011;16357;52.188;7.838;2023-05-27T02:34:25;18.80;;;5.55;;
29370;SDS011;16357;52.188;7.838;2023-05-27T02:36:51;13.40;;;5.28;;
29370;SDS011;16357;52.188;7.838;2023-05-27T02:39:18;17.75;;;5.10;;
29370;SDS011;16357;52.188;7.838;2023-05-27T02:41:44;17.48;;;5.15;;
29370;SDS011;16357;52.188;7.838;2023-05-27T02:44:11;14.43;;;5.15;;
29370;SDS011;16357;52.188;7.838;2023-05-27T02:46:37;16.98;;;5.30;;
29370;SDS011;16357;52.188;7.838;2023-05-27T02:49:04;16.70;;;5.65;;
29370;SDS011;16357;52.188;7.838;2023-05-27T02:51:30;19.02;;;5.07;;
29370;SDS011;16357;52.188;7.838;2023-05-27T02:53:57;20.20;;;6.13;;
29370;SDS011;16357;52.188;7.838;2023-05-27T02:56:23;20.63;;;5.38;;
29370;SDS011;16357;52.188;7.838;2023-05-27T02:58:52;17.40;;;5.30;;
29370;SDS011;16357;52.188;7.838;2023-05-27T03:01:19;19.45;;;5.75;;
29370;SDS011;16357;52.188;7.838;2023-05-27T03:03:45;17.20;;;4.97;;
29370;SDS011;16357;52.188;7.838;2023-05-27T03:06:12;20.00;;;5.05;;
29370;SDS011;16357;52.188;7.838;2023-05-27T03:08:39;19.48;;;5.70;;
29370;SDS011;16357;52.188;7.838;2023-05-27T03:11:06;17.85;;;5.40;;
29370;SDS011;16357;52.188;7.838;2023-05-27T03:13:33;17.73;;;5.95;;
29370;SDS011;16357;52.188;7.838;2023-05-27T03:15:59;20.95;;;5.60;;
29370;SDS011;16357;52.188;7.838;2023-05-27T03:18:26;11.57;;;4.82;;
29370;SDS011;16357;52.188;7.838;2023-05-27T03:20:52;13.68;;;5.90;;
29370;SDS011;16357;52.188;7.838;2023-05-27T03:23:19;17.65;;;5.50;;
29370;SDS011;16357;52.188;7.838;2023-05-27T03:25:45;14.32;;;5.10;;
29370;SDS011;16357;52.188;7.838;2023-05-27T03:28:12;20.70;;;5.72;;
29370;SDS011;16357;52.188;7.838;2023-05-27T03:30:40;15.60;;;5.45;;
29370;SDS011;16357;52.188;7.838;2023-05-27T03:33:09;18.50;;;5.93;;
29370;SDS011;16357;52.188;7.838;2023-05-27T03:35:36;18.55;;;5.38;;
29370;SDS011;16357;52.188;7.838;2023-05-27T03:38:02;26.42;;;6.25;;
29370;SDS011;16357;52.188;7.838;2023-05-27T03:40:29;18.52;;;5.47;;
29370;SDS011;16357;52.188;7.838;2023-05-27T03:42:55;15.88;;;5.10;;
29370;SDS011;16357;52.188;7.838;2023-05-27T03:45:22;15.05;;;5.88;;
29370;SDS011;16357;52.188;7.838;2023-05-27T03:47:48;17.33;;;5.20;;
29370;SDS011;16357;52.188;7.838;2023-05-27T03:50:14;17.33;;;5.60;;
29370;SDS011;16357;52.188;7.838;2023-05-27T03:52:41;14.85;;;5.13;;
29370;SDS011;16357;52.188;7.838;2023-05-27T03:55:08;14.25;;;5.40;;
29370;SDS011;16357;52.188;7.838;2023-05-27T03:57:34;15.43;;;5.32;;
29370;SDS011;16357;52.188;7.838;2023-05-27T04:00:01;19.23;;;6.13;;
29370;SDS011;16357;52.188;7.838;2023-05-27T04:02:32;23.23;;;5.90;;
29370;SDS011;16357;52.188;7.838;2023-05-27T04:04:58;18.88;;;5.82;;
29370;SDS011;16357;52.188;7.838;2023-05-27T04:07:26;19.27;;;6.05;;
29370;SDS011;16357;52.188;7.838;2023-05-27T04:09:53;18.10;;;5.70;;
29370;SDS011;16357;52.188;7.838;2023-05-27T04:12:19;16.73;;;5.80;;
29370;SDS011;16357;52.188;7.838;2023-05-27T04:14:46;16.60;;;5.70;;
29370;SDS011;16357;52.188;7.838;2023-05-27T04:17:13;19.70;;;5.38;;
29370;SDS011;16357;52.188;7.838;2023-05-27T04:19:39;13.77;;;4.78;;
29370;SDS011;16357;52.188;7.838;2023-05-27T04:22:06;19.15;;;5.43;;
29370;SDS011;16357;52.188;7.838;2023-05-27T04:24:32;14.32;;;4.85;;
29370;SDS011;16357;52.188;7.838;2023-05-27T04:26:59;18.67;;;6.00;;
29370;SDS011;16357;52.188;7.838;2023-05-27T04:29:25;16.25;;;5.65;;
29370;SDS011;16357;52.188;7.838;2023-05-27T04:31:53;13.90;;;5.05;;
29370;SDS011;16357;52.188;7.838;2023-05-27T04:34:37;18.75;;;5.05;;
29370;SDS011;16357;52.188;7.838;2023-05-27T04:38:10;19.48;;;5.28;;
29370;SDS011;16357;52.188;7.838;2023-05-27T04:40:50;16.30;;;5.28;;
29370;SDS011;16357;52.188;7.838;2023-05-27T04:43:41;16.25;;;5.63;;
29370;SDS011;16357;52.188;7.838;2023-05-27T04:46:31;14.75;;;4.85;;
29370;SDS011;16357;52.188;7.838;2023-05-27T04:49:00;11.88;;;4.57;;
29370;SDS011;16357;52.188;7.838;2023-05-27T04:51:58;15.15;;;4.78;;
29370;SDS011;16357;52.188;7.838;2023-05-27T04:54:38;19.52;;;5.82;;
29370;SDS011;16357;52.188;7.838;2023-05-27T04:57:05;16.27;;;5.38;;
29370;SDS011;16357;52.188;7.838;2023-05-27T04:59:32;15.68;;;5.22;;
29370;SDS011;16357;52.188;7.838;2023-05-27T05:02:12;12.77;;;4.82;;
29370;SDS011;16357;52.188;7.838;2023-05-27T05:04:48;15.98;;;5.20;;
29370;SDS011;16357;52.188;7.838;2023-05-27T05:07:16;18.27;;;5.40;;
29370;SDS011;16357;52.188;7.838;2023-05-27T05:09:45;20.92;;;5.22;;
29370;SDS011;16357;52.188;7.838;2023-05-27T05:12:12;14.65;;;5.25;;
29370;SDS011;16357;52.188;7.838;2023-05-27T05:14:39;16.38;;;5.75;;
29370;SDS011;16357;52.188;7.838;2023-05-27T05:17:05;15.88;;;5.22;;
29370;SDS011;16357;52.188;7.838;2023-05-27T05:19:31;15.57;;;5.25;;
29370;SDS011;16357;52.188;7.838;2023-05-27T05:21:58;15.68;;;4.90;;
29370;SDS011;16357;52.188;7.838;2023-05-27T05:24:24;18.90;;;5.63;;
29370;SDS011;16357;52.188;7.838;2023-05-27T05:26:51;13.70;;;5.30;;
29370;SDS011;16357;52.188;7.838;2023-05-27T05:29:17;19.05;;;5.38;;
29370;SDS011;16357;52.188;7.838;2023-05-27T05:31:44;16.83;;;5.20;;
29370;SDS011;16357;52.188;7.838;2023-05-27T05:34:11;17.17;;;5.18;;
29370;SDS011;16357;52.188;7.838;2023-05-27T05:36:38;13.10;;;4.68;;
29370;SDS011;16357;52.188;7.838;2023-05-27T05:39:04;14.18;;;5.53;;
29370;SDS011;16357;52.188;7.838;2023-05-27T05:41:31;17.58;;;5.57;;
29370;SDS011;16357;52.188;7.838;2023-05-27T05:43:58;15.80;;;5.60;;
29370;SDS011;16357;52.188;7.838;2023-05-27T05:46:24;18.60;;;5.72;;
29370;SDS011;16357;52.188;7.838;2023-05-27T05:48:51;15.60;;;4.88;;
29370;SDS011;16357;52.188;7.838;2023-05-27T05:51:19;21.30;;;6.25;;
29370;SDS011;16357;52.188;7.838;2023-05-27T05:53:46;15.07;;;5.47;;
29370;SDS011;16357;52.188;7.838;2023-05-27T05:56:12;13.57;;;5.70;;
29370;SDS011;16357;52.188;7.838;2023-05-27T05:58:39;16.40;;;5.78;;
29370;SDS011;16357;52.188;7.838;2023-05-27T06:01:05;19.50;;;5.40;;
29370;SDS011;16357;52.188;7.838;2023-05-27T06:03:32;15.55;;;5.53;;
29370;SDS011;16357;52.188;7.838;2023-05-27T06:05:59;16.17;;;5.22;;
29370;SDS011;16357;52.188;7.838;2023-05-27T06:08:25;12.02;;;4.88;;
29370;SDS011;16357;52.188;7.838;2023-05-27T06:10:52;13.75;;;5.10;;
29370;SDS011;16357;52.188;7.838;2023-05-27T06:13:18;17.17;;;5.13;;
29370;SDS011;16357;52.188;7.838;2023-05-27T06:15:45;17.40;;;5.30;;
29370;SDS011;16357;52.188;7.838;2023-05-27T06:18:12;14.57;;;5.22;;
29370;SDS011;16357;52.188;7.838;2023-05-27T06:20:38;18.25;;;5.55;;
29370;SDS011;16357;52.188;7.838;2023-05-27T06:23:05;13.10;;;5.07;;
29370;SDS011;16357;52.188;7.838;2023-05-27T06:25:32;14.68;;;5.10;;
29370;SDS011;16357;52.188;7.838;2023-05-27T06:27:59;16.55;;;5.57;;
29370;SDS011;16357;52.188;7.838;2023-05-27T06:30:25;13.85;;;4.97;;
29370;SDS011;16357;52.188;7.838;2023-05-27T06:32:52;17.25;;;5.85;;
29370;SDS011;16357;52.188;7.838;2023-05-27T06:35:18;16.13;;;4.97;;
29370;SDS011;16357;52.188;7.838;2023-05-27T06:37:45;14.35;;;5.30;;
29370;SDS011;16357;52.188;7.838;2023-05-27T06:40:13;15.77;;;5.55;;
29370;SDS011;16357;52.188;7.838;2023-05-27T06:42:39;16.88;;;5.35;;
29370;SDS011;16357;52.188;7.838;2023-05-27T06:45:06;17.63;;;5.28;;
29370;SDS011;16357;52.188;7.838;2023-05-27T06:47:33;14.95;;;5.55;;
29370;SDS011;16357;52.188;7.838;2023-05-27T06:50:00;17.73;;;5.85;;
29370;SDS011;16357;52.188;7.838;2023-05-27T06:52:26;17.80;;;5.50;;
29370;SDS011;16357;52.188;7.838;2023-05-27T06:54:52;13.65;;;5.57;;
29370;SDS011;16357;52.188;7.838;2023-05-27T06:57:19;19.15;;;5.57;;
29370;SDS011;16357;52.188;7.838;2023-05-27T06:59:45;18.13;;;6.38;;
29370;SDS011;16357;52.188;7.838;2023-05-27T07:02:12;15.60;;;5.75;;
29370;SDS011;16357;52.188;7.838;2023-05-27T07:04:38;17.85;;;5.35;;
29370;SDS011;16357;52.188;7.838;2023-05-27T07:07:05;19.25;;;4.63;;
29370;SDS011;16357;52.188;7.838;2023-05-27T07:09:42;16.42;;;5.28;;
29370;SDS011;16357;52.188;7.838;2023-05-27T07:12:08;15.55;;;5.18;;
29370;SDS011;16357;52.188;7.838;2023-05-27T07:14:35;16.83;;;5.30;;
29370;SDS011;16357;52.188;7.838;2023-05-27T07:17:02;16.50;;;5.60;;
29370;SDS011;16357;52.188;7.838;2023-05-27T07:19:28;16.23;;;5.13;;
29370;SDS011;16357;52.188;7.838;2023-05-27T07:21:55;21.33;;;5.82;;
29370;SDS011;16357;52.188;7.838;2023-05-27T07:24:21;16.33;;;5.15;;
29370;SDS011;16357;52.188;7.838;2023-05-27T07:26:48;19.95;;;5.75;;
29370;SDS011;16357;52.188;7.838;2023-05-27T07:29:14;13.82;;;5.55;;
29370;SDS011;16357;52.188;7.838;2023-05-27T07:31:41;16.17;;;5.95;;
29370;SDS011;16357;52.188;7.838;2023-05-27T07:34:07;17.98;;;5.43;;
29370;SDS011;16357;52.188;7.838;2023-05-27T07:36:34;17.90;;;5.22;;
29370;SDS011;16357;52.188;7.838;2023-05-27T07:39:01;17.10;;;5.75;;
29370;SDS011;16357;52.188;7.838;2023-05-27T07:41:27;15.93;;;5.18;;
29370;SDS011;16357;52.188;7.838;2023-05-27T07:43:56;16.77;;;5.32;;
29370;SDS011;16357;52.188;7.838;2023-05-27T07:46:22;12.82;;;4.68;;
29370;SDS011;16357;52.188;7.838;2023-05-27T07:48:49;15.18;;;4.90;;
29370;SDS011;16357;52.188;7.838;2023-05-27T07:51:15;12.98;;;5.32;;
29370;SDS011;16357;52.188;7.838;2023-05-27T07:53:42;18.30;;;5.45;;
29370;SDS011;16357;52.188;7.838;2023-05-27T07:56:08;11.80;;;4.70;;
29370;SDS011;16357;52.188;7.838;2023-05-27T07:58:35;15.80;;;5.18;;
29370;SDS011;16357;52.188;7.838;2023-05-27T08:01:01;18.38;;;5.97;;
29370;SDS011;16357;52.188;7.838;2023-05-27T08:03:28;15.00;;;5.53;;
29370;SDS011;16357;52.188;7.838;2023-05-27T08:05:55;14.50;;;5.25;;
29370;SDS011;16357;52.188;7.838;2023-05-27T08:08:21;14.27;;;5.05;;
29370;SDS011;16357;52.188;7.838;2023-05-27T08:10:48;13.95;;;4.78;;
29370;SDS011;16357;52.188;7.838;2023-05-27T08:13:14;14.45;;;4.72;;
29370;SDS011;16357;52.188;7.838;2023-05-27T08:15:40;15.32;;;5.53;;
29370;SDS011;16357;52.188;7.838;2023-05-27T08:18:07;14.82;;;4.75;;
29370;SDS011;16357;52.188;7.838;2023-05-27T08:20:33;11.68;;;4.47;;
29370;SDS011;16357;52.188;7.838;2023-05-27T08:23:00;15.10;;;5.13;;
29370;SDS011;16357;52.188;7.838;2023-05-27T08:25:27;13.07;;;5.03;;
29370;SDS011;16357;52.188;7.838;2023-05-27T08:27:53;12.30;;;5.13;;
29370;SDS011;16357;52.188;7.838;2023-05-27T08:30:27;11.45;;;4.35;;
29370;SDS011;16357;52.188;7.838;2023-05-27T08:32:55;14.98;;;4.90;;
29370;SDS011;16357;52.188;7.838;2023-05-27T08:35:22;15.15;;;5.22;;
29370;SDS011;16357;52.188;7.838;2023-05-27T08:37:49;11.98;;;4.60;;
29370;SDS011;16357;52.188;7.838;2023-05-27T08:40:17;12.88;;;5.05;;
29370;SDS011;16357;52.188;7.838;2023-05-27T08:42:47;14.80;;;4.60;;
29370;SDS011;16357;52.188;7.838;2023-05-27T08:45:14;12.23;;;4.05;;
29370;SDS011;16357;52.188;7.838;2023-05-27T08:47:41;16.13;;;4.70;;
29370;SDS011;16357;52.188;7.838;2023-05-27T08:50:08;13.02;;;4.55;;
29370;SDS011;16357;52.188;7.838;2023-05-27T08:52:38;14.63;;;4.68;;
29370;SDS011;16357;52.188;7.838;2023-05-27T08:55:11;14.50;;;4.63;;
29370;SDS011;16357;52.188;7.838;2023-05-27T08:57:40;15.13;;;4.90;;
29370;SDS011;16357;52.188;7.838;2023-05-27T09:00:15;13.18;;;4.35;;
29370;SDS011;16357;52.188;7.838;2023-05-27T09:02:45;14.82;;;5.22;;
29370;SDS011;16357;52.188;7.838;2023-05-27T09:05:12;12.45;;;4.53;;
29370;SDS011;16357;52.188;7.838;2023-05-27T09:07:40;13.23;;;4.88;;
29370;SDS011;16357;52.188;7.838;2023-05-27T09:10:07;14.45;;;4.57;;
29370;SDS011;16357;52.188;7.838;2023-05-27T09:12:34;14.65;;;4.80;;
29370;SDS011;16357;52.188;7.838;2023-05-27T09:15:04;10.65;;;4.32;;
29370;SDS011;16357;52.188;7.838;2023-05-27T09:17:32;13.52;;;4.70;;
29370;SDS011;16357;52.188;7.838;2023-05-27T09:19:58;10.05;;;4.13;;
29370;SDS011;16357;52.188;7.838;2023-05-27T09:22:31;17.35;;;5.07;;
29370;SDS011;16357;52.188;7.838;2023-05-27T09:24:58;14.75;;;4.47;;
29370;SDS011;16357;52.188;7.838;2023-05-27T09:27:28;14.50;;;5.10;;
29370;SDS011;16357;52.188;7.838;2023-05-27T09:29:57;10.52;;;4.43;;
29370;SDS011;16357;52.188;7.838;2023-05-27T09:32:24;13.20;;;4.50;;
29370;SDS011;16357;52.188;7.838;2023-05-27T09:34:51;18.10;;;4.47;;
29370;SDS011;16357;52.188;7.838;2023-05-27T09:37:18;11.45;;;4.72;;
29370;SDS011;16357;52.188;7.838;2023-05-27T09:39:47;14.38;;;4.95;;
29370;SDS011;16357;52.188;7.838;2023-05-27T09:42:17;17.77;;;5.45;;
29370;SDS011;16357;52.188;7.838;2023-05-27T09:44:45;13.55;;;5.47;;
29370;SDS011;16357;52.188;7.838;2023-05-27T09:47:15;13.82;;;4.55;;
29370;SDS011;16357;52.188;7.838;2023-05-27T09:49:42;12.70;;;4.93;;
29370;SDS011;16357;52.188;7.838;2023-05-27T09:52:11;11.32;;;3.88;;
29370;SDS011;16357;52.188;7.838;2023-05-27T09:54:38;11.95;;;4.68;;
29370;SDS011;16357;52.188;7.838;2023-05-27T09:57:04;14.13;;;5.10;;
29370;SDS011;16357;52.188;7.838;2023-05-27T09:59:34;10.73;;;4.78;;
29370;SDS011;16357;52.188;7.838;2023-05-27T10:02:00;16.38;;;7.38;;
29370;SDS011;16357;52.188;7.838;2023-05-27T10:04:30;11.20;;;5.20;;
29370;SDS011;16357;52.188;7.838;2023-05-27T10:07:07;12.18;;;4.93;;
29370;SDS011;16357;52.188;7.838;2023-05-27T10:09:36;10.43;;;3.97;;
29370;SDS011;16357;52.188;7.838;2023-05-27T10:12:03;11.93;;;4.40;;
29370;SDS011;16357;52.188;7.838;2023-05-27T10:14:31;11.45;;;4.55;;
29370;SDS011;16357;52.188;7.838;2023-05-27T10:16:58;11.30;;;4.38;;
29370;SDS011;16357;52.188;7.838;2023-05-27T10:19:25;11.07;;;4.05;;
29370;SDS011;16357;52.188;7.838;2023-05-27T10:21:51;11.43;;;4.50;;
29370;SDS011;16357;52.188;7.838;2023-05-27T10:24:18;10.57;;;4.57;;
29370;SDS011;16357;52.188;7.838;2023-05-27T10:26:45;12.40;;;4.82;;
29370;SDS011;16357;52.188;7.838;2023-05-27T10:29:14;14.45;;;5.20;;
29370;SDS011;16357;52.188;7.838;2023-05-27T10:31:49;9.18;;;4.18;;
29370;SDS011;16357;52.188;7.838;2023-05-27T10:34:19;9.95;;;4.32;;
29370;SDS011;16357;52.188;7.838;2023-05-27T10:36:45;13.32;;;5.68;;
29370;SDS011;16357;52.188;7.838;2023-05-27T10:39:16;10.45;;;4.70;;
29370;SDS011;16357;52.188;7.838;2023-05-27T10:41:48;13.52;;;5.43;;
29370;SDS011;16357;52.188;7.838;2023-05-27T10:44:24;9.85;;;4.30;;
29370;SDS011;16357;52.188;7.838;2023-05-27T10:47:10;13.20;;;4.18;;
29370;SDS011;16357;52.188;7.838;2023-05-27T10:49:38;12.88;;;5.53;;
29370;SDS011;16357;52.188;7.838;2023-05-27T10:52:06;11.98;;;4.50;;
29370;SDS011;16357;52.188;7.838;2023-05-27T10:54:39;10.45;;;4.43;;
29370;SDS011;16357;52.188;7.838;2023-05-27T10:57:06;11.73;;;4.80;;
29370;SDS011;16357;52.188;7.838;2023-05-27T10:59:49;9.60;;;4.43;;
29370;SDS011;16357;52.188;7.838;2023-05-27T11:02:24;11.95;;;4.22;;
29370;SDS011;16357;52.188;7.838;2023-05-27T11:04:57;9.85;;;4.40;;
29370;SDS011;16357;52.188;7.838;2023-05-27T11:07:23;13.43;;;4.53;;
29370;SDS011;16357;52.188;7.838;2023-05-27T11:09:51;11.43;;;4.13;;
29370;SDS011;16357;52.188;7.838;2023-05-27T11:12:23;12.50;;;4.00;;
29370;SDS011;16357;52.188;7.838;2023-05-27T11:17:18;9.23;;;4.25;;
29370;SDS011;16357;52.188;7.838;2023-05-27T11:19:46;12.65;;;5.40;;
29370;SDS011;16357;52.188;7.838;2023-05-27T11:22:33;13.05;;;4.60;;
29370;SDS011;16357;52.188;7.838;2023-05-27T11:25:01;11.45;;;5.03;;
29370;SDS011;16357;52.188;7.838;2023-05-27T11:27:35;10.30;;;4.45;;
29370;SDS011;16357;52.188;7.838;2023-05-27T11:30:06;15.07;;;5.13;;
29370;SDS011;16357;52.188;7.838;2023-05-27T11:32:35;10.43;;;4.18;;
29370;SDS011;16357;52.188;7.838;2023-05-27T11:35:02;7.63;;;3.55;;
29370;SDS011;16357;52.188;7.838;2023-05-27T11:37:33;9.15;;;3.65;;
29370;SDS011;16357;52.188;7.838;2023-05-27T11:40:00;9.20;;;3.95;;
29370;SDS011;16357;52.188;7.838;2023-05-27T11:42:28;10.07;;;3.83;;
29370;SDS011;16357;52.188;7.838;2023-05-27T11:44:55;10.15;;;3.83;;
29370;SDS011;16357;52.188;7.838;2023-05-27T11:47:21;11.52;;;4.22;;
29370;SDS011;16357;52.188;7.838;2023-05-27T11:49:49;12.48;;;4.40;;
29370;SDS011;16357;52.188;7.838;2023-05-27T11:52:16;13.65;;;4.22;;
29370;SDS011;16357;52.188;7.838;2023-05-27T11:54:43;10.27;;;4.00;;
29370;SDS011;16357;52.188;7.838;2023-05-27T11:57:22;8.70;;;3.85;;
29370;SDS011;16357;52.188;7.838;2023-05-27T11:59:49;10.70;;;4.05;;
29370;SDS011;16357;52.188;7.838;2023-05-27T12:02:15;6.20;;;3.03;;
29370;SDS011;16357;52.188;7.838;2023-05-27T12:04:42;6.65;;;3.60;;
29370;SDS011;16357;52.188;7.838;2023-05-27T12:07:09;9.52;;;3.78;;
29370;SDS011;16357;52.188;7.838;2023-05-27T12:09:46;9.40;;;4.00;;
29370;SDS011;16357;52.188;7.838;2023-05-27T12:12:14;8.70;;;3.75;;
29370;SDS011;16357;52.188;7.838;2023-05-27T12:14:41;7.05;;;3.28;;
29370;SDS011;16357;52.188;7.838;2023-05-27T12:17:08;8.15;;;4.10;;
29370;SDS011;16357;52.188;7.838;2023-05-27T12:19:34;7.53;;;3.33;;
29370;SDS011;16357;52.188;7.838;2023-05-27T12:22:01;9.93;;;4.00;;
29370;SDS011;16357;52.188;7.838;2023-05-27T12:24:27;10.13;;;3.95;;
29370;SDS011;16357;52.188;7.838;2023-05-27T12:40:55;7.57;;;3.47;;
29370;SDS011;16357;52.188;7.838;2023-05-27T12:43:22;8.60;;;4.00;;
29370;SDS011;16357;52.188;7.838;2023-05-27T12:45:49;8.07;;;3.47;;
29370;SDS011;16357;52.188;7.838;2023-05-27T12:48:17;10.50;;;3.83;;
29370;SDS011;16357;52.188;7.838;2023-05-27T12:50:44;10.57;;;3.90;;
29370;SDS011;16357;52.188;7.838;2023-05-27T12:53:11;16.20;;;6.47;;
29370;SDS011;16357;52.188;7.838;2023-05-27T12:55:37;8.30;;;4.88;;
29370;SDS011;16357;52.188;7.838;2023-05-27T12:58:04;11.18;;;4.82;;
29370;SDS011;16357;52.188;7.838;2023-05-27T13:00:31;9.05;;;3.67;;
29370;SDS011;16357;52.188;7.838;2023-05-27T13:02:58;8.35;;;3.55;;
29370;SDS011;16357;52.188;7.838;2023-05-27T13:05:24;8.65;;;3.40;;
29370;SDS011;16357;52.188;7.838;2023-05-27T13:08:01;8.52;;;4.10;;
29370;SDS011;16357;52.188;7.838;2023-05-27T13:10:29;9.73;;;3.78;;
29370;SDS011;16357;52.188;7.838;2023-05-27T13:12:57;8.75;;;4.38;;
29370;SDS011;16357;52.188;7.838;2023-05-27T13:15:27;10.23;;;4.40;;
29370;SDS011;16357;52.188;7.838;2023-05-27T13:17:54;9.30;;;3.78;;
29370;SDS011;16357;52.188;7.838;2023-05-27T13:20:23;10.75;;;3.67;;
29370;SDS011;16357;52.188;7.838;2023-05-27T13:22:50;10.30;;;4.80;;
29370;SDS011;16357;52.188;7.838;2023-05-27T13:25:18;10.27;;;5.90;;
29370;SDS011;16357;52.188;7.838;2023-05-27T13:27:45;9.45;;;4.20;;
29370;SDS011;16357;52.188;7.838;2023-05-27T13:30:13;6.25;;;3.03;;
29370;SDS011;16357;52.188;7.838;2023-05-27T13:32:41;4.82;;;3.10;;
29370;SDS011;16357;52.188;7.838;2023-05-27T13:35:09;8.23;;;3.72;;
29370;SDS011;16357;52.188;7.838;2023-05-27T13:37:37;8.35;;;3.50;;
29370;SDS011;16357;52.188;7.838;2023-05-27T13:40:05;9.60;;;3.63;;
29370;SDS011;16357;52.188;7.838;2023-05-27T13:42:33;6.22;;;3.03;;
29370;SDS011;16357;52.188;7.838;2023-05-27T13:44:59;6.70;;;2.83;;
29370;SDS011;16357;52.188;7.838;2023-05-27T13:47:26;10.27;;;3.17;;
29370;SDS011;16357;52.188;7.838;2023-05-27T13:49:52;9.30;;;3.08;;
29370;SDS011;16357;52.188;7.838;2023-05-27T13:52:19;6.55;;;3.10;;
29370;SDS011;16357;52.188;7.838;2023-05-27T13:54:45;8.35;;;3.33;;
29370;SDS011;16357;52.188;7.838;2023-05-27T13:57:12;7.03;;;3.05;;
29370;SDS011;16357;52.188;7.838;2023-05-27T13:59:38;9.98;;;3.55;;
29370;SDS011;16357;52.188;7.838;2023-05-27T14:02:05;7.60;;;2.92;;
29370;SDS011;16357;52.188;7.838;2023-05-27T14:04:34;6.82;;;3.13;;
29370;SDS011;16357;52.188;7.838;2023-05-27T14:07:00;8.57;;;2.97;;
29370;SDS011;16357;52.188;7.838;2023-05-27T14:09:27;5.68;;;2.88;;
29370;SDS011;16357;52.188;7.838;2023-05-27T14:11:54;5.72;;;2.60;;
29370;SDS011;16357;52.188;7.838;2023-05-27T14:14:21;10.77;;;3.13;;
29370;SDS011;16357;52.188;7.838;2023-05-27T14:16:48;8.43;;;3.40;;
29370;SDS011;16357;52.188;7.838;2023-05-27T14:19:14;7.90;;;3.03;;
29370;SDS011;16357;52.188;7.838;2023-05-27T14:21:41;7.45;;;3.08;;
29370;SDS011;16357;52.188;7.838;2023-05-27T14:24:13;6.95;;;3.28;;
29370;SDS011;16357;52.188;7.838;2023-05-27T14:26:39;11.00;;;3.70;;
29370;SDS011;16357;52.188;7.838;2023-05-27T14:29:07;7.40;;;3.22;;
29370;SDS011;16357;52.188;7.838;2023-05-27T14:31:33;7.10;;;3.00;;
29370;SDS011;16357;52.188;7.838;2023-05-27T14:34:00;7.47;;;3.03;;
29370;SDS011;16357;52.188;7.838;2023-05-27T14:36:26;6.78;;;3.03;;
29370;SDS011;16357;52.188;7.838;2023-05-27T14:38:53;9.05;;;3.80;;
29370;SDS011;16357;52.188;7.838;2023-05-27T14:41:19;7.07;;;3.30;;
29370;SDS011;16357;52.188;7.838;2023-05-27T14:43:45;9.73;;;3.33;;
29370;SDS011;16357;52.188;7.838;2023-05-27T14:46:12;8.90;;;3.50;;
29370;SDS011;16357;52.188;7.838;2023-05-27T14:48:38;8.60;;;3.53;;
29370;SDS011;16357;52.188;7.838;2023-05-27T14:51:05;8.00;;;3.60;;
29370;SDS011;16357;52.188;7.838;2023-05-27T14:53:31;7.32;;;3.05;;
29370;SDS011;16357;52.188;7.838;2023-05-27T14:55:58;5.85;;;3.10;;
29370;SDS011;16357;52.188;7.838;2023-05-27T14:58:24;6.22;;;3.00;;